METAR Data
IDs: Format: Raw Decoded Include TAF

Data at: 0212 UTC 19 Oct 2021

PATE 190156Z AUTO 09009KT 10SM CLR M05/M08 A2950 RMK AO2 SLP000 T10501078 FZRANO
PATE 190056Z AUTO 12011KT 10SM BKN100 M05/M08 A2954 RMK AO2 SLP013 T10501078 FZRANO
PATE 182356Z AUTO 10014KT 10SM CLR M06/M08 A2957 RMK AO2 SLP023 T10561083 11056 21083 58037 FZRANO
PATE 182256Z AUTO 09013KT 10SM OVC100 M06/M09 A2962 RMK AO2 SLP037 T10611089 FZRANO
PATE 182156Z AUTO 09009KT 10SM SCT028 OVC090 M07/M09 A2966 RMK AO2 SLP052 T10671089 FZRANO
PATE 182056Z AUTO 11009KT 10SM SCT100 M07/M09 A2969 RMK AO2 SLP061 T10671094 58017 FZRANO
PATE 181956Z AUTO 14010KT 10SM CLR M08/M09 A2971 RMK AO2 SLP071 T10781094 FZRANO
PATE 181856Z AUTO 12009KT 10SM SCT120 M08/M10 A2972 RMK AO2 SLP072 T10781100 FZRANO
PATE 181756Z AUTO 12007KT 10SM CLR M08/M10 A2974 RMK AO2 SLP078 T10831100 11072 21100 57024 FZRANO
PATE 181656Z AUTO 13007KT 10SM FEW120 M08/M10 A2976 RMK AO2 SLP086 T10781100 FZRANO
PATE 181556Z AUTO 11005KT 10SM CLR M09/M11 A2978 RMK AO2 SLP094 T10891111 FZRANO
PATE 181456Z AUTO 15004KT 10SM CLR M09/M12 A2981 RMK AO2 SLP103 T10941117 56012 FZRANO
PATE 181356Z AUTO 17003KT 10SM FEW024 M09/M11 A2982 RMK AO2 SLP106 T10891106 FZRANO
PATE 181348Z AUTO 17003KT 10SM FEW024 M08/M10 A2982 RMK AO2 FZRANO
PATE 181256Z AUTO 00000KT 10SM OVC026 M08/M09 A2983 RMK AO2 SLP110 T10831094 FZRANO
PATE 181156Z AUTO 35003KT 10SM OVC026 M07/M08 A2984 RMK AO2 SLP114 T10721083 11044 21078 58005 FZRANO
PATE 181056Z AUTO 01003KT 10SM BKN026 M07/M08 A2985 RMK AO2 SLP117 T10671083 FZRANO
PATE 181042Z AUTO 04005KT 10SM BKN026 M07/M08 A2985 RMK AO2 FZRANO
PATE 180956Z AUTO 36005KT 10SM CLR M07/M09 A2986 RMK AO2 SLP119 T10721089 FZRANO
PATE 180856Z AUTO 36008KT 10SM OVC030 M06/M09 A2986 RMK AO2 SLP119 T10611089 410331061 53002 FZRANO
PATE 180756Z AUTO 01011KT 10SM OVC030 M06/M08 A2985 RMK AO2 SLP116 T10561083 FZRANO
PATE 180733Z AUTO 36010KT 10SM OVC030 M05/M08 A2985 RMK AO2 FZRANO
PATE 180656Z AUTO 36011KT 10SM OVC028 M05/M08 A2986 RMK AO2 SLP119 T10501083 FZRANO
PATE 180556Z AUTO 01011KT 10SM OVC028 M04/M08 A2985 RMK AO2 SLP117 T10441083 11033 21044 51010 FZRANO
PATE 180456Z AUTO 36013KT 10SM OVC028 M04/M08 A2984 RMK AO2 SLP113 T10441083 FZRANO
PATE 180356Z AUTO 36014KT 10SM OVC026 M04/M08 A2983 RMK AO2 SLP110 T10391083 FZRANO
PATE 180256Z AUTO 36018KT 10SM OVC026 M04/M08 A2982 RMK AO2 SLP106 T10391083 53010 FZRANO
PATE 180156Z AUTO 01015KT 10SM OVC026 M04/M08 A2981 RMK AO2 SLP102 T10391083 FZRANO
PATE 180056Z AUTO 01018KT 10SM OVC026 M04/M08 A2980 RMK AO2 PK WND 36026/0007 SLP100 T10391083 FZRANO
PATE 172356Z AUTO 36024KT 10SM OVC026 M03/M08 A2979 RMK AO2 PK WND 01027/2356 SLP097 T10331083 11033 21050 51017 FZRANO
PATE 172256Z AUTO 36018G23KT 10SM OVC026 M03/M08 A2978 RMK AO2 SLP093 T10331078 FZRANO
PATE 172156Z AUTO 03017G23KT 10SM OVC026 M03/M08 A2976 RMK AO2 PK WND 01030/2103 SLP087 T10331078 FZRANO
PATE 172128Z AUTO 02019KT 10SM BKN024 M03/M08 A2975 RMK AO2 PK WND 01030/2103 FZRANO
PATE 172056Z AUTO 02023KT 10SM FEW039 M03/M08 A2974 RMK AO2 PK WND 01028/2054 SLP079 T10331078 51015 FZRANO
PATE 171956Z AUTO 02017G23KT 10SM FEW030 M04/M07 A2973 RMK AO2 SLP077 T10391072 FZRANO
PATE 171856Z AUTO 02014KT 10SM BKN038 M04/M08 A2972 RMK AO2 SLP071 T10441078 FZRANO
PATE 171756Z AUTO 02016KT 10SM FEW026 OVC034 M04/M07 A2970 RMK AO2 PK WND 04027/1716 SLP064 T10441072 11039 21061 52016 FZRANO
PATE 171732Z AUTO 03017KT 10SM OVC030 M04/M07 A2969 RMK AO2 PK WND 04027/1716 FZRANO
PATE 171656Z AUTO 04018G26KT 10SM OVC028 M04/M07 A2968 RMK AO2 PK WND 03028/1617 SLP058 T10391072 FZRANO
PATE 171556Z AUTO 04016KT 10SM OVC028 M04/M07 A2967 RMK AO2 PK WND 03027/1535 SLP053 T10391072 FZRANO
PATE 171456Z AUTO 04016KT 10SM OVC026 M04/M08 A2965 RMK AO2 SLP048 T10441078 51010 FZRANO